sensor_id;sensor_type;location;lat;lon;timestamp;temperature;humidity
19966;DHT22;10144;50.874;4.762;2023-05-10T00:01:55;13.50;99.90
19966;DHT22;10144;50.874;4.762;2023-05-10T00:04:21;13.50;99.90
19966;DHT22;10144;50.874;4.762;2023-05-10T00:06:50;13.50;99.90
19966;DHT22;10144;50.874;4.762;2023-05-10T00:12:23;13.60;99.90
19966;DHT22;10144;50.874;4.762;2023-05-10T00:14:48;13.60;99.90
19966;DHT22;10144;50.874;4.762;2023-05-10T00:17:27;13.70;99.90
19966;DHT22;10144;50.874;4.762;2023-05-10T00:19:56;13.70;99.90
19966;DHT22;10144;50.874;4.762;2023-05-10T00:22:33;13.70;99.90
19966;DHT22;10144;50.874;4.762;2023-05-10T00:25:02;13.70;99.90
19966;DHT22;10144;50.874;4.762;2023-05-10T00:27:28;13.60;99.90
19966;DHT22;10144;50.874;4.762;2023-05-10T00:29:57;13.60;99.90
19966;DHT22;10144;50.874;4.762;2023-05-10T00:32:22;13.70;99.90
19966;DHT22;10144;50.874;4.762;2023-05-10T00:35:11;13.70;99.90
19966;DHT22;10144;50.874;4.762;2023-05-10T00:37:37;13.70;99.90
19966;DHT22;10144;50.874;4.762;2023-05-10T00:40:09;13.70;99.90
19966;DHT22;10144;50.874;4.762;2023-05-10T00:42:35;13.70;99.90
19966;DHT22;10144;50.874;4.762;2023-05-10T00:45:11;13.70;99.90
19966;DHT22;10144;50.874;4.762;2023-05-10T00:47:43;13.70;99.90
19966;DHT22;10144;50.874;4.762;2023-05-10T00:53:31;13.70;99.90
19966;DHT22;10144;50.874;4.762;2023-05-10T00:56:16;13.60;99.90
19966;DHT22;10144;50.874;4.762;2023-05-10T00:58:49;13.50;99.90
19966;DHT22;10144;50.874;4.762;2023-05-10T01:01:18;13.50;99.90
19966;DHT22;10144;50.874;4.762;2023-05-10T01:03:48;13.60;99.90
19966;DHT22;10144;50.874;4.762;2023-05-10T01:06:17;13.60;99.90
19966;DHT22;10144;50.874;4.762;2023-05-10T01:08:42;13.70;99.90
19966;DHT22;10144;50.874;4.762;2023-05-10T01:11:14;13.80;99.90
19966;DHT22;10144;50.874;4.762;2023-05-10T01:13:53;13.70;99.90
19966;DHT22;10144;50.874;4.762;2023-05-10T01:16:26;13.70;99.90
19966;DHT22;10144;50.874;4.762;2023-05-10T01:18:53;13.70;99.90
19966;DHT22;10144;50.874;4.762;2023-05-10T01:21:36;13.70;99.90
19966;DHT22;10144;50.874;4.762;2023-05-10T01:30:50;13.60;99.90
19966;DHT22;10144;50.874;4.762;2023-05-10T01:39:08;13.60;99.90
19966;DHT22;10144;50.874;4.762;2023-05-10T01:47:44;13.60;99.90
19966;DHT22;10144;50.874;4.762;2023-05-10T01:50:18;13.60;99.90
19966;DHT22;10144;50.874;4.762;2023-05-10T01:52:53;13.70;99.90
19966;DHT22;10144;50.874;4.762;2023-05-10T01:55:50;13.70;99.90
19966;DHT22;10144;50.874;4.762;2023-05-10T01:58:25;13.70;99.90
19966;DHT22;10144;50.874;4.762;2023-05-10T02:00:54;13.70;99.90
19966;DHT22;10144;50.874;4.762;2023-05-10T02:03:23;13.70;99.90
19966;DHT22;10144;50.874;4.762;2023-05-10T02:05:56;13.70;99.90
19966;DHT22;10144;50.874;4.762;2023-05-10T02:08:24;13.70;99.90
19966;DHT22;10144;50.874;4.762;2023-05-10T02:10:57;13.70;99.90
19966;DHT22;10144;50.874;4.762;2023-05-10T02:13:27;13.80;99.90
19966;DHT22;10144;50.874;4.762;2023-05-10T02:15:55;13.70;99.90
19966;DHT22;10144;50.874;4.762;2023-05-10T02:18:25;13.70;99.90
19966;DHT22;10144;50.874;4.762;2023-05-10T02:20:53;13.70;99.90
19966;DHT22;10144;50.874;4.762;2023-05-10T02:23:23;13.70;99.90
19966;DHT22;10144;50.874;4.762;2023-05-10T02:26:07;13.60;99.90
19966;DHT22;10144;50.874;4.762;2023-05-10T02:28:40;13.60;99.90
19966;DHT22;10144;50.874;4.762;2023-05-10T02:31:10;13.60;99.90
19966;DHT22;10144;50.874;4.762;2023-05-10T02:33:47;13.60;99.90
19966;DHT22;10144;50.874;4.762;2023-05-10T02:36:16;13.60;99.90
19966;DHT22;10144;50.874;4.762;2023-05-10T02:38:44;13.70;99.90
19966;DHT22;10144;50.874;4.762;2023-05-10T02:41:19;13.70;99.90
19966;DHT22;10144;50.874;4.762;2023-05-10T02:43:50;13.80;99.90
19966;DHT22;10144;50.874;4.762;2023-05-10T02:46:27;13.80;99.90
19966;DHT22;10144;50.874;4.762;2023-05-10T02:49:17;13.80;99.90
19966;DHT22;10144;50.874;4.762;2023-05-10T02:51:55;13.90;99.90
19966;DHT22;10144;50.874;4.762;2023-05-10T02:54:32;14.00;99.90
19966;DHT22;10144;50.874;4.762;2023-05-10T02:57:03;14.10;99.90
19966;DHT22;10144;50.874;4.762;2023-05-10T02:59:35;14.00;99.90
19966;DHT22;10144;50.874;4.762;2023-05-10T03:02:04;13.90;99.90
19966;DHT22;10144;50.874;4.762;2023-05-10T03:04:30;13.70;99.90
19966;DHT22;10144;50.874;4.762;2023-05-10T03:06:59;13.80;99.90
19966;DHT22;10144;50.874;4.762;2023-05-10T03:09:31;13.80;99.90
19966;DHT22;10144;50.874;4.762;2023-05-10T03:12:38;13.90;99.90
19966;DHT22;10144;50.874;4.762;2023-05-10T03:21:12;13.90;99.90
19966;DHT22;10144;50.874;4.762;2023-05-10T03:23:49;13.90;99.90
19966;DHT22;10144;50.874;4.762;2023-05-10T03:26:27;13.80;99.90
19966;DHT22;10144;50.874;4.762;2023-05-10T03:28:56;13.90;99.90
19966;DHT22;10144;50.874;4.762;2023-05-10T03:31:26;13.80;99.90
19966;DHT22;10144;50.874;4.762;2023-05-10T03:34:00;13.90;99.90
19966;DHT22;10144;50.874;4.762;2023-05-10T03:36:29;13.70;99.90
19966;DHT22;10144;50.874;4.762;2023-05-10T03:38:57;13.70;99.90
19966;DHT22;10144;50.874;4.762;2023-05-10T03:41:23;13.70;99.90
19966;DHT22;10144;50.874;4.762;2023-05-10T03:43:51;13.70;99.90
19966;DHT22;10144;50.874;4.762;2023-05-10T03:46:23;13.70;99.90
19966;DHT22;10144;50.874;4.762;2023-05-10T03:48:56;13.70;99.90
19966;DHT22;10144;50.874;4.762;2023-05-10T03:51:21;13.70;99.90
19966;DHT22;10144;50.874;4.762;2023-05-10T03:53:51;13.50;99.90
19966;DHT22;10144;50.874;4.762;2023-05-10T03:56:19;13.50;99.90
19966;DHT22;10144;50.874;4.762;2023-05-10T03:58:49;13.40;99.90
19966;DHT22;10144;50.874;4.762;2023-05-10T04:01:15;13.30;99.90
19966;DHT22;10144;50.874;4.762;2023-05-10T04:04:11;13.20;99.90
19966;DHT22;10144;50.874;4.762;2023-05-10T04:06:43;13.10;99.90
19966;DHT22;10144;50.874;4.762;2023-05-10T04:09:12;13.10;99.90
19966;DHT22;10144;50.874;4.762;2023-05-10T04:11:44;13.10;99.90
19966;DHT22;10144;50.874;4.762;2023-05-10T04:14:25;13.10;99.90
19966;DHT22;10144;50.874;4.762;2023-05-10T04:16:50;13.00;99.90
19966;DHT22;10144;50.874;4.762;2023-05-10T04:22:26;12.90;99.90
19966;DHT22;10144;50.874;4.762;2023-05-10T04:24:53;12.70;99.90
19966;DHT22;10144;50.874;4.762;2023-05-10T04:27:19;12.70;99.90
19966;DHT22;10144;50.874;4.762;2023-05-10T04:30:01;12.70;99.90
19966;DHT22;10144;50.874;4.762;2023-05-10T04:32:37;12.60;99.90
19966;DHT22;10144;50.874;4.762;2023-05-10T04:35:05;12.60;99.90
19966;DHT22;10144;50.874;4.762;2023-05-10T04:37:42;12.60;99.90
19966;DHT22;10144;50.874;4.762;2023-05-10T04:40:11;12.70;99.90
19966;DHT22;10144;50.874;4.762;2023-05-10T04:43:07;12.70;99.90
19966;DHT22;10144;50.874;4.762;2023-05-10T04:45:49;12.70;99.90
19966;DHT22;10144;50.874;4.762;2023-05-10T04:48:46;12.80;99.90
19966;DHT22;10144;50.874;4.762;2023-05-10T04:51:15;12.80;99.90
19966;DHT22;10144;50.874;4.762;2023-05-10T04:53:43;12.70;99.90
19966;DHT22;10144;50.874;4.762;2023-05-10T04:56:14;12.70;99.90
19966;DHT22;10144;50.874;4.762;2023-05-10T04:58:41;12.80;99.90
19966;DHT22;10144;50.874;4.762;2023-05-10T05:01:16;12.80;99.90
19966;DHT22;10144;50.874;4.762;2023-05-10T05:03:44;12.70;99.90
19966;DHT22;10144;50.874;4.762;2023-05-10T05:06:10;12.70;99.90
19966;DHT22;10144;50.874;4.762;2023-05-10T05:08:39;12.70;99.90
19966;DHT22;10144;50.874;4.762;2023-05-10T05:11:07;12.70;99.90
19966;DHT22;10144;50.874;4.762;2023-05-10T05:13:33;12.60;99.90
19966;DHT22;10144;50.874;4.762;2023-05-10T05:16:03;12.60;99.90
19966;DHT22;10144;50.874;4.762;2023-05-10T05:18:32;12.60;99.90
19966;DHT22;10144;50.874;4.762;2023-05-10T05:21:01;12.60;99.90
19966;DHT22;10144;50.874;4.762;2023-05-10T05:23:29;12.60;99.90
19966;DHT22;10144;50.874;4.762;2023-05-10T05:25:58;12.70;99.90
19966;DHT22;10144;50.874;4.762;2023-05-10T05:28:24;12.70;99.90
19966;DHT22;10144;50.874;4.762;2023-05-10T05:30:52;12.70;99.90
19966;DHT22;10144;50.874;4.762;2023-05-10T05:33:18;12.90;99.90
19966;DHT22;10144;50.874;4.762;2023-05-10T05:35:50;13.00;99.90
19966;DHT22;10144;50.874;4.762;2023-05-10T05:38:17;13.20;99.90
19966;DHT22;10144;50.874;4.762;2023-05-10T05:40:46;13.10;99.90
19966;DHT22;10144;50.874;4.762;2023-05-10T05:43:14;13.20;99.90
19966;DHT22;10144;50.874;4.762;2023-05-10T05:45:46;13.30;99.90
19966;DHT22;10144;50.874;4.762;2023-05-10T05:48:15;13.30;99.90
19966;DHT22;10144;50.874;4.762;2023-05-10T05:50:43;13.20;99.90
19966;DHT22;10144;50.874;4.762;2023-05-10T05:53:12;13.10;99.90
19966;DHT22;10144;50.874;4.762;2023-05-10T05:55:37;13.20;99.90
19966;DHT22;10144;50.874;4.762;2023-05-10T05:58:06;13.20;99.90
19966;DHT22;10144;50.874;4.762;2023-05-10T06:00:33;13.30;99.90
19966;DHT22;10144;50.874;4.762;2023-05-10T06:03:02;13.40;99.90
19966;DHT22;10144;50.874;4.762;2023-05-10T06:05:33;13.50;99.90
19966;DHT22;10144;50.874;4.762;2023-05-10T06:08:02;13.50;99.90
19966;DHT22;10144;50.874;4.762;2023-05-10T06:10:28;13.60;99.90
19966;DHT22;10144;50.874;4.762;2023-05-10T06:12:57;13.70;99.90
19966;DHT22;10144;50.874;4.762;2023-05-10T06:15:25;13.70;99.90
19966;DHT22;10144;50.874;4.762;2023-05-10T06:17:55;13.60;99.90
19966;DHT22;10144;50.874;4.762;2023-05-10T06:20:20;13.70;99.90
19966;DHT22;10144;50.874;4.762;2023-05-10T06:22:49;13.70;99.90
19966;DHT22;10144;50.874;4.762;2023-05-10T06:25:17;13.70;99.90
19966;DHT22;10144;50.874;4.762;2023-05-10T06:27:46;13.70;99.90
19966;DHT22;10144;50.874;4.762;2023-05-10T06:30:18;13.80;99.90
19966;DHT22;10144;50.874;4.762;2023-05-10T06:32:45;13.90;99.90
19966;DHT22;10144;50.874;4.762;2023-05-10T06:35:13;13.90;99.90
19966;DHT22;10144;50.874;4.762;2023-05-10T06:37:42;14.00;99.90
19966;DHT22;10144;50.874;4.762;2023-05-10T06:40:10;14.10;99.90
19966;DHT22;10144;50.874;4.762;2023-05-10T06:42:39;14.10;99.90
19966;DHT22;10144;50.874;4.762;2023-05-10T06:45:05;14.20;99.90
19966;DHT22;10144;50.874;4.762;2023-05-10T06:47:31;14.30;99.90
19966;DHT22;10144;50.874;4.762;2023-05-10T06:49:57;14.40;99.90
19966;DHT22;10144;50.874;4.762;2023-05-10T06:52:22;14.50;99.90
19966;DHT22;10144;50.874;4.762;2023-05-10T06:54:48;14.60;99.90
19966;DHT22;10144;50.874;4.762;2023-05-10T06:57:14;14.70;99.90
19966;DHT22;10144;50.874;4.762;2023-05-10T06:59:39;14.60;99.90
19966;DHT22;10144;50.874;4.762;2023-05-10T07:02:05;14.60;99.90
19966;DHT22;10144;50.874;4.762;2023-05-10T07:04:31;14.60;99.90
19966;DHT22;10144;50.874;4.762;2023-05-10T07:06:57;14.60;99.90
19966;DHT22;10144;50.874;4.762;2023-05-10T07:09:23;14.40;99.90
19966;DHT22;10144;50.874;4.762;2023-05-10T07:11:49;14.30;99.90
19966;DHT22;10144;50.874;4.762;2023-05-10T07:14:15;14.30;99.90
19966;DHT22;10144;50.874;4.762;2023-05-10T07:16:41;14.40;99.90
19966;DHT22;10144;50.874;4.762;2023-05-10T07:19:06;14.40;99.90
19966;DHT22;10144;50.874;4.762;2023-05-10T07:21:32;14.50;99.90
19966;DHT22;10144;50.874;4.762;2023-05-10T07:23:58;14.50;99.90
19966;DHT22;10144;50.874;4.762;2023-05-10T07:26:23;14.50;99.90
19966;DHT22;10144;50.874;4.762;2023-05-10T07:28:49;14.40;99.90
19966;DHT22;10144;50.874;4.762;2023-05-10T07:31:15;14.40;99.90
19966;DHT22;10144;50.874;4.762;2023-05-10T07:33:40;14.40;99.90
19966;DHT22;10144;50.874;4.762;2023-05-10T07:36:06;14.50;99.90
19966;DHT22;10144;50.874;4.762;2023-05-10T07:38:32;14.40;99.90
19966;DHT22;10144;50.874;4.762;2023-05-10T07:40:57;14.40;99.90
19966;DHT22;10144;50.874;4.762;2023-05-10T07:43:23;14.30;99.90
19966;DHT22;10144;50.874;4.762;2023-05-10T07:45:48;14.10;99.90
19966;DHT22;10144;50.874;4.762;2023-05-10T07:48:15;14.10;99.90
19966;DHT22;10144;50.874;4.762;2023-05-10T07:50:41;14.10;99.90
19966;DHT22;10144;50.874;4.762;2023-05-10T07:53:06;14.00;99.90
19966;DHT22;10144;50.874;4.762;2023-05-10T07:55:33;14.00;99.90
19966;DHT22;10144;50.874;4.762;2023-05-10T07:57:58;13.90;99.90
19966;DHT22;10144;50.874;4.762;2023-05-10T08:00:26;13.90;99.90
19966;DHT22;10144;50.874;4.762;2023-05-10T08:02:52;13.90;99.90
19966;DHT22;10144;50.874;4.762;2023-05-10T08:05:18;13.90;99.90
19966;DHT22;10144;50.874;4.762;2023-05-10T08:07:45;13.90;99.90
19966;DHT22;10144;50.874;4.762;2023-05-10T08:10:11;13.90;99.90
19966;DHT22;10144;50.874;4.762;2023-05-10T08:12:37;13.90;99.90
19966;DHT22;10144;50.874;4.762;2023-05-10T08:15:04;13.90;99.90
19966;DHT22;10144;50.874;4.762;2023-05-10T08:17:30;13.90;99.90
19966;DHT22;10144;50.874;4.762;2023-05-10T08:19:55;13.80;99.90
19966;DHT22;10144;50.874;4.762;2023-05-10T08:22:21;13.70;99.90
19966;DHT22;10144;50.874;4.762;2023-05-10T08:24:46;13.60;99.90
19966;DHT22;10144;50.874;4.762;2023-05-10T08:27:12;13.60;99.90
19966;DHT22;10144;50.874;4.762;2023-05-10T08:29:38;13.50;99.90
19966;DHT22;10144;50.874;4.762;2023-05-10T08:32:03;13.60;99.90
19966;DHT22;10144;50.874;4.762;2023-05-10T08:34:29;13.70;99.90
19966;DHT22;10144;50.874;4.762;2023-05-10T08:36:56;13.60;99.90
19966;DHT22;10144;50.874;4.762;2023-05-10T08:39:22;13.70;99.90
19966;DHT22;10144;50.874;4.762;2023-05-10T08:41:51;13.70;99.90
19966;DHT22;10144;50.874;4.762;2023-05-10T08:44:18;13.70;99.90
19966;DHT22;10144;50.874;4.762;2023-05-10T08:46:46;13.70;99.90
19966;DHT22;10144;50.874;4.762;2023-05-10T08:49:17;13.80;99.90
19966;DHT22;10144;50.874;4.762;2023-05-10T08:51:50;13.70;99.90
19966;DHT22;10144;50.874;4.762;2023-05-10T08:54:17;13.80;99.90
19966;DHT22;10144;50.874;4.762;2023-05-10T08:56:43;13.70;99.90
19966;DHT22;10144;50.874;4.762;2023-05-10T08:59:08;13.70;99.90
19966;DHT22;10144;50.874;4.762;2023-05-10T09:01:35;13.90;99.90
19966;DHT22;10144;50.874;4.762;2023-05-10T09:04:03;14.00;99.90
19966;DHT22;10144;50.874;4.762;2023-05-10T09:06:29;14.00;99.90
19966;DHT22;10144;50.874;4.762;2023-05-10T09:08:55;14.00;99.90
19966;DHT22;10144;50.874;4.762;2023-05-10T09:11:21;14.00;99.90
19966;DHT22;10144;50.874;4.762;2023-05-10T09:13:48;14.00;99.90
19966;DHT22;10144;50.874;4.762;2023-05-10T09:16:15;14.00;99.90
19966;DHT22;10144;50.874;4.762;2023-05-10T09:18:40;14.10;99.90
19966;DHT22;10144;50.874;4.762;2023-05-10T09:21:06;14.10;99.90
19966;DHT22;10144;50.874;4.762;2023-05-10T09:23:32;14.10;99.90
19966;DHT22;10144;50.874;4.762;2023-05-10T09:26:07;14.20;99.90
19966;DHT22;10144;50.874;4.762;2023-05-10T09:28:54;14.30;99.90
19966;DHT22;10144;50.874;4.762;2023-05-10T09:31:21;14.30;99.90
19966;DHT22;10144;50.874;4.762;2023-05-10T09:33:48;14.30;99.90
19966;DHT22;10144;50.874;4.762;2023-05-10T09:36:15;14.40;99.90
19966;DHT22;10144;50.874;4.762;2023-05-10T09:38:51;14.60;99.90
19966;DHT22;10144;50.874;4.762;2023-05-10T09:41:23;14.60;99.90
19966;DHT22;10144;50.874;4.762;2023-05-10T09:43:51;14.50;99.90
19966;DHT22;10144;50.874;4.762;2023-05-10T09:46:20;14.40;99.90
19966;DHT22;10144;50.874;4.762;2023-05-10T09:48:47;14.40;99.90
19966;DHT22;10144;50.874;4.762;2023-05-10T09:51:22;14.40;99.90
19966;DHT22;10144;50.874;4.762;2023-05-10T09:53:48;14.40;99.90
19966;DHT22;10144;50.874;4.762;2023-05-10T09:56:34;14.50;99.90
19966;DHT22;10144;50.874;4.762;2023-05-10T09:59:04;14.50;99.90
19966;DHT22;10144;50.874;4.762;2023-05-10T10:01:30;14.60;99.90
19966;DHT22;10144;50.874;4.762;2023-05-10T10:03:56;14.70;99.90
19966;DHT22;10144;50.874;4.762;2023-05-10T10:06:24;14.80;99.90
19966;DHT22;10144;50.874;4.762;2023-05-10T10:08:50;14.80;99.90
19966;DHT22;10144;50.874;4.762;2023-05-10T10:11:16;14.80;99.90
19966;DHT22;10144;50.874;4.762;2023-05-10T10:13:42;14.80;99.90
19966;DHT22;10144;50.874;4.762;2023-05-10T10:16:08;15.00;99.90
19966;DHT22;10144;50.874;4.762;2023-05-10T10:18:36;15.10;99.90
19966;DHT22;10144;50.874;4.762;2023-05-10T10:21:08;15.30;99.90
19966;DHT22;10144;50.874;4.762;2023-05-10T10:23:36;15.40;99.90
19966;DHT22;10144;50.874;4.762;2023-05-10T10:26:03;15.60;99.90
19966;DHT22;10144;50.874;4.762;2023-05-10T10:31:34;15.40;99.90
19966;DHT22;10144;50.874;4.762;2023-05-10T10:34:08;15.40;99.90
19966;DHT22;10144;50.874;4.762;2023-05-10T10:36:45;15.50;99.90
19966;DHT22;10144;50.874;4.762;2023-05-10T10:39:11;15.40;99.90
19966;DHT22;10144;50.874;4.762;2023-05-10T10:41:39;15.60;99.90
19966;DHT22;10144;50.874;4.762;2023-05-10T10:47:10;15.70;99.90
19966;DHT22;10144;50.874;4.762;2023-05-10T10:52:34;16.00;99.90
19966;DHT22;10144;50.874;4.762;2023-05-10T10:55:06;16.20;99.90
19966;DHT22;10144;50.874;4.762;2023-05-10T10:57:53;16.30;99.90
19966;DHT22;10144;50.874;4.762;2023-05-10T11:00:38;16.50;99.90
19966;DHT22;10144;50.874;4.762;2023-05-10T11:03:10;16.70;99.90
19966;DHT22;10144;50.874;4.762;2023-05-10T11:05:44;17.00;99.90
19966;DHT22;10144;50.874;4.762;2023-05-10T11:08:14;17.30;99.90
19966;DHT22;10144;50.874;4.762;2023-05-10T11:13:45;18.00;99.90
19966;DHT22;10144;50.874;4.762;2023-05-10T11:18:37;18.30;99.90
19966;DHT22;10144;50.874;4.762;2023-05-10T11:21:03;18.50;99.90
19966;DHT22;10144;50.874;4.762;2023-05-10T11:23:32;18.90;99.90
19966;DHT22;10144;50.874;4.762;2023-05-10T11:25:59;19.50;99.90
19966;DHT22;10144;50.874;4.762;2023-05-10T11:28:26;20.10;99.90
19966;DHT22;10144;50.874;4.762;2023-05-10T11:30:52;20.50;99.90
19966;DHT22;10144;50.874;4.762;2023-05-10T11:33:20;20.10;99.90
19966;DHT22;10144;50.874;4.762;2023-05-10T11:35:46;19.80;99.90
19966;DHT22;10144;50.874;4.762;2023-05-10T11:38:12;19.80;99.90
19966;DHT22;10144;50.874;4.762;2023-05-10T11:40:39;19.80;99.90
19966;DHT22;10144;50.874;4.762;2023-05-10T11:43:05;20.00;99.90
19966;DHT22;10144;50.874;4.762;2023-05-10T11:45:34;20.20;99.90
19966;DHT22;10144;50.874;4.762;2023-05-10T11:48:01;20.30;99.90
19966;DHT22;10144;50.874;4.762;2023-05-10T11:50:27;20.40;99.90
19966;DHT22;10144;50.874;4.762;2023-05-10T11:52:56;20.50;99.90
19966;DHT22;10144;50.874;4.762;2023-05-10T11:55:22;20.40;99.90
19966;DHT22;10144;50.874;4.762;2023-05-10T11:57:53;20.40;99.90
19966;DHT22;10144;50.874;4.762;2023-05-10T12:00:20;20.00;99.90
19966;DHT22;10144;50.874;4.762;2023-05-10T12:02:48;19.70;99.90
19966;DHT22;10144;50.874;4.762;2023-05-10T12:05:18;19.50;99.90
19966;DHT22;10144;50.874;4.762;2023-05-10T12:07:44;19.40;99.90
19966;DHT22;10144;50.874;4.762;2023-05-10T12:10:16;19.30;99.90
19966;DHT22;10144;50.874;4.762;2023-05-10T12:12:47;19.10;99.90
19966;DHT22;10144;50.874;4.762;2023-05-10T12:15:21;19.10;99.90
19966;DHT22;10144;50.874;4.762;2023-05-10T12:17:48;19.20;99.90
19966;DHT22;10144;50.874;4.762;2023-05-10T12:22:40;19.20;99.90
19966;DHT22;10144;50.874;4.762;2023-05-10T12:25:07;19.30;99.90
19966;DHT22;10144;50.874;4.762;2023-05-10T12:27:33;19.50;99.90
19966;DHT22;10144;50.874;4.762;2023-05-10T12:29:59;19.50;99.90
19966;DHT22;10144;50.874;4.762;2023-05-10T12:32:44;19.70;99.90
19966;DHT22;10144;50.874;4.762;2023-05-10T12:35:09;19.60;99.90
19966;DHT22;10144;50.874;4.762;2023-05-10T12:37:35;19.40;99.90
19966;DHT22;10144;50.874;4.762;2023-05-10T12:40:09;19.50;99.90
19966;DHT22;10144;50.874;4.762;2023-05-10T12:42:36;19.60;99.90
19966;DHT22;10144;50.874;4.762;2023-05-10T12:45:04;19.80;99.90
19966;DHT22;10144;50.874;4.762;2023-05-10T12:47:31;19.90;99.90
19966;DHT22;10144;50.874;4.762;2023-05-10T12:49:57;20.00;99.90
19966;DHT22;10144;50.874;4.762;2023-05-10T12:52:23;20.10;99.90
19966;DHT22;10144;50.874;4.762;2023-05-10T12:54:48;20.10;99.90
19966;DHT22;10144;50.874;4.762;2023-05-10T12:57:14;20.10;99.90
19966;DHT22;10144;50.874;4.762;2023-05-10T12:59:40;19.80;99.90
19966;DHT22;10144;50.874;4.762;2023-05-10T13:02:08;19.70;99.90
19966;DHT22;10144;50.874;4.762;2023-05-10T13:04:33;19.70;99.90
19966;DHT22;10144;50.874;4.762;2023-05-10T13:06:59;19.90;99.90
19966;DHT22;10144;50.874;4.762;2023-05-10T13:09:26;20.00;99.90
19966;DHT22;10144;50.874;4.762;2023-05-10T13:11:52;20.20;99.90
19966;DHT22;10144;50.874;4.762;2023-05-10T13:14:19;20.10;99.90
19966;DHT22;10144;50.874;4.762;2023-05-10T13:16:47;19.90;99.90
19966;DHT22;10144;50.874;4.762;2023-05-10T13:19:13;19.80;99.90
19966;DHT22;10144;50.874;4.762;2023-05-10T13:21:39;19.60;99.90
19966;DHT22;10144;50.874;4.762;2023-05-10T13:24:10;19.30;99.90
19966;DHT22;10144;50.874;4.762;2023-05-10T13:26:36;19.00;99.90
19966;DHT22;10144;50.874;4.762;2023-05-10T13:29:03;18.90;99.90
19966;DHT22;10144;50.874;4.762;2023-05-10T13:31:28;18.90;99.90
19966;DHT22;10144;50.874;4.762;2023-05-10T13:33:55;18.80;99.90
19966;DHT22;10144;50.874;4.762;2023-05-10T13:36:20;18.70;99.90
19966;DHT22;10144;50.874;4.762;2023-05-10T13:38:46;18.70;99.90
19966;DHT22;10144;50.874;4.762;2023-05-10T13:41:12;18.70;99.90
19966;DHT22;10144;50.874;4.762;2023-05-10T13:43:37;18.50;99.90
19966;DHT22;10144;50.874;4.762;2023-05-10T13:46:03;18.40;99.90
19966;DHT22;10144;50.874;4.762;2023-05-10T13:48:29;18.30;99.90
19966;DHT22;10144;50.874;4.762;2023-05-10T13:50:54;18.20;99.90
19966;DHT22;10144;50.874;4.762;2023-05-10T13:53:20;18.10;99.90
19966;DHT22;10144;50.874;4.762;2023-05-10T13:55:46;18.20;99.90
19966;DHT22;10144;50.874;4.762;2023-05-10T13:58:12;18.10;99.90
19966;DHT22;10144;50.874;4.762;2023-05-10T14:00:38;18.30;99.90
19966;DHT22;10144;50.874;4.762;2023-05-10T14:03:03;18.50;99.90
19966;DHT22;10144;50.874;4.762;2023-05-10T14:05:30;18.50;99.90
19966;DHT22;10144;50.874;4.762;2023-05-10T14:07:56;18.40;99.90
19966;DHT22;10144;50.874;4.762;2023-05-10T14:10:25;18.60;99.90
19966;DHT22;10144;50.874;4.762;2023-05-10T14:13:13;18.50;99.90
19966;DHT22;10144;50.874;4.762;2023-05-10T14:15:42;18.30;99.90
19966;DHT22;10144;50.874;4.762;2023-05-10T14:18:07;18.40;99.90
19966;DHT22;10144;50.874;4.762;2023-05-10T14:20:33;18.40;99.90
19966;DHT22;10144;50.874;4.762;2023-05-10T14:22:59;18.30;99.90
19966;DHT22;10144;50.874;4.762;2023-05-10T14:25:25;18.40;99.90
19966;DHT22;10144;50.874;4.762;2023-05-10T14:27:51;18.50;99.90
19966;DHT22;10144;50.874;4.762;2023-05-10T14:30:16;18.80;99.90
19966;DHT22;10144;50.874;4.762;2023-05-10T14:32:42;18.80;99.90
19966;DHT22;10144;50.874;4.762;2023-05-10T14:35:08;18.80;99.90
19966;DHT22;10144;50.874;4.762;2023-05-10T14:37:34;18.90;99.90
19966;DHT22;10144;50.874;4.762;2023-05-10T14:40:01;18.90;99.90
19966;DHT22;10144;50.874;4.762;2023-05-10T14:42:26;18.90;99.90
19966;DHT22;10144;50.874;4.762;2023-05-10T14:44:52;19.10;99.90
19966;DHT22;10144;50.874;4.762;2023-05-10T14:47:17;19.10;99.90
19966;DHT22;10144;50.874;4.762;2023-05-10T14:49:43;19.00;99.90
19966;DHT22;10144;50.874;4.762;2023-05-10T14:52:10;19.10;99.90
19966;DHT22;10144;50.874;4.762;2023-05-10T14:54:37;19.10;99.90
19966;DHT22;10144;50.874;4.762;2023-05-10T14:57:03;19.20;99.90
19966;DHT22;10144;50.874;4.762;2023-05-10T14:59:29;19.40;99.90
19966;DHT22;10144;50.874;4.762;2023-05-10T15:01:55;19.40;99.90
19966;DHT22;10144;50.874;4.762;2023-05-10T15:04:20;19.50;99.90
19966;DHT22;10144;50.874;4.762;2023-05-10T15:06:46;19.60;99.90
19966;DHT22;10144;50.874;4.762;2023-05-10T15:09:12;19.60;99.90
19966;DHT22;10144;50.874;4.762;2023-05-10T15:11:38;19.50;99.90
19966;DHT22;10144;50.874;4.762;2023-05-10T15:14:03;19.30;99.90
19966;DHT22;10144;50.874;4.762;2023-05-10T15:16:29;19.20;99.90
19966;DHT22;10144;50.874;4.762;2023-05-10T15:18:54;19.20;99.90
19966;DHT22;10144;50.874;4.762;2023-05-10T15:21:20;19.30;99.90
19966;DHT22;10144;50.874;4.762;2023-05-10T15:23:46;19.00;99.90
19966;DHT22;10144;50.874;4.762;2023-05-10T15:26:12;19.10;99.90
19966;DHT22;10144;50.874;4.762;2023-05-10T15:28:38;19.20;99.90
19966;DHT22;10144;50.874;4.762;2023-05-10T15:31:04;19.10;99.90
19966;DHT22;10144;50.874;4.762;2023-05-10T15:33:30;18.80;99.90
19966;DHT22;10144;50.874;4.762;2023-05-10T15:35:55;18.70;99.90
19966;DHT22;10144;50.874;4.762;2023-05-10T15:38:21;18.90;99.90
19966;DHT22;10144;50.874;4.762;2023-05-10T15:40:47;19.10;99.90
19966;DHT22;10144;50.874;4.762;2023-05-10T15:43:13;19.30;99.90
19966;DHT22;10144;50.874;4.762;2023-05-10T15:45:39;19.40;99.90
19966;DHT22;10144;50.874;4.762;2023-05-10T15:48:05;19.30;99.90
19966;DHT22;10144;50.874;4.762;2023-05-10T15:50:30;19.20;99.90
19966;DHT22;10144;50.874;4.762;2023-05-10T15:53:02;19.20;99.90
19966;DHT22;10144;50.874;4.762;2023-05-10T15:55:27;19.20;99.90
19966;DHT22;10144;50.874;4.762;2023-05-10T15:57:53;19.10;99.90
19966;DHT22;10144;50.874;4.762;2023-05-10T16:00:22;18.80;99.90
19966;DHT22;10144;50.874;4.762;2023-05-10T16:02:47;18.60;99.90
19966;DHT22;10144;50.874;4.762;2023-05-10T16:05:13;18.50;99.90
19966;DHT22;10144;50.874;4.762;2023-05-10T16:07:39;18.40;99.90
19966;DHT22;10144;50.874;4.762;2023-05-10T16:10:08;18.10;99.90
19966;DHT22;10144;50.874;4.762;2023-05-10T16:12:33;17.90;99.90
19966;DHT22;10144;50.874;4.762;2023-05-10T16:14:59;17.80;99.90
19966;DHT22;10144;50.874;4.762;2023-05-10T16:17:25;17.50;99.90
19966;DHT22;10144;50.874;4.762;2023-05-10T16:19:51;17.30;99.90
19966;DHT22;10144;50.874;4.762;2023-05-10T16:22:16;17.00;99.90
19966;DHT22;10144;50.874;4.762;2023-05-10T16:24:42;16.70;99.90
19966;DHT22;10144;50.874;4.762;2023-05-10T16:27:07;16.60;99.90
19966;DHT22;10144;50.874;4.762;2023-05-10T16:29:33;16.50;99.90
19966;DHT22;10144;50.874;4.762;2023-05-10T16:31:59;16.60;99.90